Time;durP1;ratioP1;P1;durP2;ratioP2;P2;SDS_P1;SDS_P2;PMS_P1;PMS_P2;Temp;Humidity;BMP_temperature;BMP_pressure;BME280_temperature;BME280_humidity;BME280_pressure;Samples;Min_cycle;Max_cycle;Signal;HPM_P1;HPM_P2
2022/09/02 00:01:57;;;;;;;38.72;23.52;;;;;;;14.09;79.76;101490.88;5207376;28;20065;-69
2022/09/02 00:04:29;;;;;;;46.85;29.15;;;;;;;14.03;81.08;101485.16;5211201;28;20041;-69
2022/09/02 00:07:00;;;;;;;61.15;36.47;;;;;;;14.02;78.51;101484.31;5203919;28;20800;-69
2022/09/02 00:09:31;;;;;;;62.78;38.65;;;;;;;13.96;78.90;101482.13;5208554;28;20041;-69
2022/09/02 00:12:03;;;;;;;64.43;38.75;;;;;;;13.95;79.29;101471.50;5203346;28;20479;-68
2022/09/02 00:14:36;;;;;;;61.20;36.83;;;;;;;14.03;80.32;101477.09;5200426;28;20037;-69
2022/09/02 00:17:08;;;;;;;58.65;35.92;;;;;;;13.89;79.49;101472.84;5203622;28;20543;-68
2022/09/02 00:19:39;;;;;;;44.75;25.83;;;;;;;14.01;79.62;101476.38;5219566;28;20376;-69
2022/09/02 00:22:10;;;;;;;37.83;20.50;;;;;;;13.89;82.15;101475.53;5204962;28;20110;-69
2022/09/02 00:24:42;;;;;;;19.05;10.50;;;;;;;13.91;80.10;101473.56;5197929;28;20037;-69
2022/09/02 00:27:13;;;;;;;7.45;3.08;;;;;;;13.86;75.69;101471.25;5204123;28;20032;-69
2022/09/02 00:29:44;;;;;;;6.63;3.55;;;;;;;13.91;79.76;101468.22;5200609;28;21295;-69
2022/09/02 00:32:15;;;;;;;7.03;3.10;;;;;;;13.83;81.25;101466.16;5192609;28;20022;-68
2022/09/02 00:34:47;;;;;;;4.55;2.00;;;;;;;13.73;80.69;101460.69;5193176;28;20095;-69
2022/09/02 00:37:18;;;;;;;4.45;2.22;;;;;;;13.77;85.88;101466.66;5195728;28;20025;-69
2022/09/02 00:39:51;;;;;;;3.42;1.70;;;;;;;13.64;80.77;101463.25;5201731;28;20060;-68
2022/09/02 00:42:23;;;;;;;5.07;2.00;;;;;;;13.66;82.17;101467.50;5203246;28;20432;-69
2022/09/02 00:44:54;;;;;;;4.07;1.95;;;;;;;13.60;83.64;101467.16;5201737;28;20158;-68
2022/09/02 00:47:26;;;;;;;4.13;2.00;;;;;;;13.55;83.59;101462.13;5200502;28;20017;-69
2022/09/02 00:49:58;;;;;;;4.88;1.88;;;;;;;13.56;83.56;101465.66;5199390;28;20077;-69
2022/09/02 00:52:33;;;;;;;4.95;1.90;;;;;;;13.47;82.47;101460.06;5204132;28;20083;-69
2022/09/02 00:55:11;;;;;;;5.68;1.92;;;;;;;13.50;82.04;101459.81;5201262;28;20034;-69
2022/09/02 00:57:50;;;;;;;4.22;1.85;;;;;;;13.48;82.73;101452.84;5202515;28;20034;-69
2022/09/02 01:00:32;;;;;;;2.72;1.70;;;;;;;13.46;82.57;101453.00;5200372;28;20053;-69
2022/09/02 01:03:10;;;;;;;4.97;1.90;;;;;;;13.39;80.87;101450.94;5204245;28;20033;-68
2022/09/02 01:05:45;;;;;;;5.78;1.95;;;;;;;13.39;84.54;101462.50;5202529;28;20052;-69
2022/09/02 01:08:21;;;;;;;3.95;1.70;;;;;;;13.38;82.92;101451.88;5201933;28;20361;-69
2022/09/02 01:10:56;;;;;;;5.43;1.90;;;;;;;13.40;86.67;101441.91;5210539;28;20569;-69
2022/09/02 01:13:30;;;;;;;4.45;1.80;;;;;;;13.27;82.81;101448.19;5205728;28;20098;-68
2022/09/02 01:16:11;;;;;;;4.22;1.63;;;;;;;13.33;84.17;101444.22;5205244;28;20054;-68
2022/09/02 01:18:49;;;;;;;4.20;1.70;;;;;;;13.38;87.38;101449.22;5203194;28;20089;-69
2022/09/02 01:21:22;;;;;;;4.15;1.80;;;;;;;13.26;85.18;101446.47;5204692;28;20046;-68
2022/09/02 01:23:53;;;;;;;4.03;1.90;;;;;;;13.27;86.60;101450.00;5213085;28;20087;-68
2022/09/02 01:26:25;;;;;;;3.63;1.92;;;;;;;13.30;86.04;101447.13;5211941;28;20026;-68
2022/09/02 01:28:56;;;;;;;5.82;2.42;;;;;;;13.18;85.39;101445.38;5196460;28;20460;-68
2022/09/02 01:31:27;;;;;;;6.18;1.80;;;;;;;13.22;85.28;101446.84;5204077;28;20483;-68
2022/09/02 01:33:59;;;;;;;4.35;1.88;;;;;;;13.12;84.86;101441.38;5216800;28;20551;-69
2022/09/02 01:36:30;;;;;;;4.05;2.03;;;;;;;13.25;86.01;101443.91;5197562;28;20060;-68
2022/09/02 01:39:02;;;;;;;6.30;2.92;;;;;;;13.14;87.66;101439.41;5195788;28;20026;-68
2022/09/02 01:41:33;;;;;;;6.80;1.90;;;;;;;13.05;83.04;101437.44;5196806;28;20034;-68
2022/09/02 01:44:05;;;;;;;3.45;1.90;;;;;;;13.03;84.98;101437.56;5196616;28;20873;-68
2022/09/02 01:46:37;;;;;;;3.88;2.10;;;;;;;13.07;87.22;101435.50;5205688;28;20036;-69
2022/09/02 01:49:08;;;;;;;3.13;2.00;;;;;;;13.02;85.83;101437.66;5199042;28;20046;-69
2022/09/02 01:51:40;;;;;;;5.47;2.25;;;;;;;13.00;85.58;101432.47;5201429;28;20614;-69
2022/09/02 01:54:11;;;;;;;5.00;1.70;;;;;;;12.93;84.17;101433.91;5203363;28;20112;-68
2022/09/02 01:56:42;;;;;;;5.18;2.30;;;;;;;12.90;84.76;101434.13;5201318;28;20293;-69
2022/09/02 01:59:16;;;;;;;6.38;2.00;;;;;;;12.94;85.65;101424.88;5202573;28;20321;-69
2022/09/02 02:01:48;;;;;;;4.75;2.08;;;;;;;13.00;85.04;101429.78;5201667;28;20072;-68
2022/09/02 02:04:19;;;;;;;5.20;2.10;;;;;;;12.86;85.36;101428.13;5201992;28;20136;-69
2022/09/02 02:06:51;;;;;;;4.55;1.98;;;;;;;12.82;83.58;101437.38;5208130;28;20622;-69
2022/09/02 02:09:22;;;;;;;3.97;2.08;;;;;;;12.85;86.98;101430.97;5238900;28;20016;-69
2022/09/02 02:11:54;;;;;;;4.47;2.10;;;;;;;12.83;86.93;101425.72;5202416;28;20025;-69
2022/09/02 02:14:25;;;;;;;3.83;2.20;;;;;;;12.84;88.99;101430.09;5202751;28;20065;-69
2022/09/02 02:16:56;;;;;;;6.10;2.05;;;;;;;12.79;86.68;101428.72;5221910;28;20491;-69
2022/09/02 02:19:28;;;;;;;4.20;2.13;;;;;;;12.74;83.45;101424.59;5203992;28;20076;-69
2022/09/02 02:21:59;;;;;;;4.65;2.50;;;;;;;12.73;83.47;101430.94;5202889;28;20032;-69
2022/09/02 02:24:30;;;;;;;5.05;2.50;;;;;;;12.79;85.84;101432.28;5216994;28;20396;-70
2022/09/02 02:27:02;;;;;;;5.45;2.20;;;;;;;12.78;83.10;101429.72;5198879;28;20041;-69
2022/09/02 02:29:34;;;;;;;5.68;2.53;;;;;;;12.81;86.39;101424.97;5220655;28;20026;-68
2022/09/02 02:32:06;;;;;;;4.68;2.10;;;;;;;12.87;85.53;101426.34;5199377;28;20396;-68
2022/09/02 02:34:38;;;;;;;5.47;2.10;;;;;;;12.87;85.99;101423.66;5214742;28;20041;-68
2022/09/02 02:37:11;;;;;;;3.90;2.17;;;;;;;12.89;84.49;101419.88;5224130;28;20026;-68
2022/09/02 02:39:42;;;;;;;4.32;2.03;;;;;;;12.83;82.88;101420.34;5201886;28;20056;-68
2022/09/02 02:42:14;;;;;;;4.15;2.08;;;;;;;12.87;84.97;101412.94;5204055;28;20030;-68
2022/09/02 02:44:45;;;;;;;5.85;2.35;;;;;;;12.96;86.26;101417.56;5205382;28;20513;-68
2022/09/02 02:47:17;;;;;;;5.47;2.30;;;;;;;12.88;84.46;101412.81;5205233;28;20026;-68
2022/09/02 02:49:48;;;;;;;5.40;2.10;;;;;;;12.93;85.97;101417.81;5207091;28;20038;-68
2022/09/02 02:52:19;;;;;;;5.60;2.00;;;;;;;12.98;83.88;101409.41;5204103;28;20461;-68
2022/09/02 02:54:51;;;;;;;4.07;2.08;;;;;;;12.94;83.59;101415.03;5205627;28;20034;-68
2022/09/02 02:57:22;;;;;;;4.13;2.42;;;;;;;13.07;89.46;101414.91;5210077;28;20486;-68
2022/09/02 02:59:53;;;;;;;5.25;2.22;;;;;;;12.99;85.89;101421.84;5200886;28;20566;-69
2022/09/02 03:02:24;;;;;;;5.22;2.40;;;;;;;13.00;83.79;101411.03;5202832;28;20403;-69
2022/09/02 03:04:56;;;;;;;3.97;2.20;;;;;;;13.05;84.83;101408.81;5202938;28;20030;-68
2022/09/02 03:07:28;;;;;;;3.88;2.38;;;;;;;13.12;89.45;101412.75;5199963;28;20026;-68
2022/09/02 03:09:59;;;;;;;5.22;2.30;;;;;;;13.17;83.89;101411.53;5206592;28;20372;-68
2022/09/02 03:12:32;;;;;;;5.22;2.42;;;;;;;13.11;86.45;101404.81;5212208;28;20396;-68
2022/09/02 03:15:04;;;;;;;6.72;2.40;;;;;;;13.12;86.11;101412.75;5198252;28;20083;-68
2022/09/02 03:17:36;;;;;;;4.20;2.50;;;;;;;13.08;84.71;101405.06;5198002;28;20042;-68
2022/09/02 03:20:08;;;;;;;4.20;1.90;;;;;;;13.08;82.84;101405.91;5202858;28;20582;-69
2022/09/02 03:22:46;;;;;;;3.75;2.17;;;;;;;13.04;81.26;101404.44;5206009;28;20038;-69
2022/09/02 03:25:19;;;;;;;5.10;2.35;;;;;;;13.13;86.98;101405.53;5201487;28;20411;-69
2022/09/02 03:27:51;;;;;;;5.68;2.75;;;;;;;13.10;86.84;101403.97;5202286;28;20021;-69
2022/09/02 03:30:26;;;;;;;5.90;2.60;;;;;;;13.22;88.59;101404.81;5196629;28;20113;-69
2022/09/02 03:32:59;;;;;;;5.70;2.63;;;;;;;13.11;88.29;101402.97;5199040;28;20033;-69
2022/09/02 03:35:31;;;;;;;7.20;2.47;;;;;;;13.02;84.24;101402.84;5205104;28;20040;-68
2022/09/02 03:38:02;;;;;;;7.95;2.47;;;;;;;13.03;83.80;101397.38;5202867;28;20099;-68
2022/09/02 03:40:34;;;;;;;6.32;2.88;;;;;;;13.17;86.68;101398.13;5209580;28;20135;-68
2022/09/02 03:43:05;;;;;;;5.68;2.58;;;;;;;13.13;86.45;101394.81;5235575;28;20027;-68
2022/09/02 03:45:39;;;;;;;4.65;2.75;;;;;;;13.00;84.61;101394.06;5207952;28;20089;-69
2022/09/02 03:48:12;;;;;;;6.32;2.90;;;;;;;12.97;86.75;101392.50;5211692;28;20017;-68
2022/09/02 03:50:46;;;;;;;6.25;3.88;;;;;;;12.97;88.33;101392.50;5210824;28;20081;-69
2022/09/02 03:53:17;;;;;;;4.68;3.22;;;;;;;12.94;86.33;101390.06;5220064;28;20071;-69
2022/09/02 03:55:48;;;;;;;5.45;2.92;;;;;;;12.85;87.17;101386.28;5214207;28;20030;-68
2022/09/02 03:58:21;;;;;;;6.65;3.20;;;;;;;12.90;89.52;101384.06;5209098;28;20018;-69
2022/09/02 04:00:53;;;;;;;6.97;3.40;;;;;;;12.82;88.53;101382.97;5203409;28;20044;-69
2022/09/02 04:03:24;;;;;;;4.28;2.85;;;;;;;12.86;89.17;101381.75;5218861;28;20436;-68
2022/09/02 04:05:57;;;;;;;5.70;2.97;;;;;;;12.75;88.09;101383.47;5250288;28;20083;-68
2022/09/02 04:08:28;;;;;;;8.13;3.28;;;;;;;12.72;86.26;101386.38;5204945;28;21562;-69
2022/09/02 04:11:04;;;;;;;8.57;3.47;;;;;;;12.72;87.63;101386.38;5214360;28;20038;-68
2022/09/02 04:13:36;;;;;;;7.03;3.50;;;;;;;12.59;88.94;101380.25;5207337;28;20052;-69
2022/09/02 04:16:13;;;;;;;5.82;3.45;;;;;;;12.59;88.79;101380.25;5212191;28;20047;-69
2022/09/02 04:18:45;;;;;;;7.97;3.45;;;;;;;12.56;89.82;101369.78;5205788;28;20142;-69
2022/09/02 04:21:16;;;;;;;7.28;3.30;;;;;;;12.52;89.78;101376.31;5207426;28;20651;-69
2022/09/02 04:23:47;;;;;;;5.70;3.70;;;;;;;12.60;90.85;101373.94;5212746;28;20024;-68
2022/09/02 04:26:20;;;;;;;5.32;3.53;;;;;;;12.45;90.73;101373.28;5211102;28;20131;-69
2022/09/02 04:28:53;;;;;;;7.75;3.72;;;;;;;12.53;90.90;101370.00;5225979;28;20370;-69
2022/09/02 04:31:24;;;;;;;6.13;3.70;;;;;;;12.52;91.95;101369.16;5221539;28;20423;-69
2022/09/02 04:33:57;;;;;;;8.32;4.13;;;;;;;12.48;91.22;101372.19;5226722;28;20050;-69
2022/09/02 04:36:29;;;;;;;7.28;4.20;;;;;;;12.48;91.99;101359.66;5225004;28;20244;-69
2022/09/02 04:39:00;;;;;;;7.97;4.47;;;;;;;12.46;92.65;101364.25;5209534;28;20510;-69
2022/09/02 04:41:34;;;;;;;8.80;4.50;;;;;;;12.47;90.08;101359.78;5204330;28;20026;-68
2022/09/02 04:44:06;;;;;;;7.80;4.03;;;;;;;12.43;87.36;101363.66;5211044;28;21317;-68
2022/09/02 04:46:37;;;;;;;10.50;4.50;;;;;;;12.45;88.01;101373.28;5207257;28;20292;-69
2022/09/02 04:49:09;;;;;;;6.53;4.40;;;;;;;12.52;89.22;101366.50;5205904;28;20755;-68
2022/09/02 04:51:40;;;;;;;10.57;4.32;;;;;;;12.60;89.76;101355.19;5206300;28;20041;-69
2022/09/02 04:54:12;;;;;;;7.03;4.28;;;;;;;12.68;88.70;101371.50;5209876;28;20026;-68
2022/09/02 04:56:43;;;;;;;8.25;4.75;;;;;;;12.65;88.22;101366.38;5199399;28;20030;-68
2022/09/02 04:59:15;;;;;;;8.50;4.90;;;;;;;12.69;89.09;101354.47;5201558;28;20456;-69
2022/09/02 05:01:47;;;;;;;13.88;5.55;;;;;;;12.70;88.00;101364.22;5201817;28;20030;-68
2022/09/02 05:04:18;;;;;;;9.60;5.43;;;;;;;12.78;89.46;101368.13;5206708;28;20096;-69
2022/09/02 05:06:50;;;;;;;11.45;5.15;;;;;;;12.88;86.92;101371.78;5209903;28;20030;-68
2022/09/02 05:09:21;;;;;;;15.95;5.85;;;;;;;12.95;87.15;101375.69;5207093;28;20026;-68
2022/09/02 05:11:56;;;;;;;12.57;5.50;;;;;;;12.94;87.76;101369.50;5210033;28;20096;-69
2022/09/02 05:14:27;;;;;;;12.70;5.95;;;;;;;13.12;88.41;101375.22;5209568;28;20476;-69
2022/09/02 05:16:59;;;;;;;11.38;5.10;;;;;;;13.14;85.57;101370.59;5205615;28;20044;-69
2022/09/02 05:19:31;;;;;;;10.75;5.78;;;;;;;13.21;88.28;101372.78;5201367;28;20018;-69
2022/09/02 05:22:03;;;;;;;12.55;6.10;;;;;;;13.19;85.93;101377.41;5201435;28;20088;-68
2022/09/02 05:24:35;;;;;;;12.55;6.00;;;;;;;13.24;82.52;101372.56;5209869;28;20032;-68
2022/09/02 05:27:06;;;;;;;13.75;5.47;;;;;;;13.34;82.49;101376.22;5204278;28;20417;-69
2022/09/02 05:29:37;;;;;;;13.75;6.05;;;;;;;13.32;83.42;101375.50;5207328;28;20018;-69
2022/09/02 05:32:09;;;;;;;13.45;6.15;;;;;;;13.40;82.82;101373.06;5203291;28;20025;-68
2022/09/02 05:34:40;;;;;;;14.85;6.78;;;;;;;13.43;82.42;101372.81;5206160;28;21929;-69
2022/09/02 05:37:11;;;;;;;12.68;6.55;;;;;;;13.50;81.86;101368.69;5202943;28;20855;-68
2022/09/02 05:39:43;;;;;;;12.57;6.30;;;;;;;13.55;84.89;101364.75;5202820;28;20096;-70
2022/09/02 05:42:15;;;;;;;15.20;6.93;;;;;;;13.62;82.33;101374.03;5200570;28;20500;-69
2022/09/02 05:44:47;;;;;;;12.90;6.97;;;;;;;13.69;80.85;101369.84;5203808;28;20030;-70
2022/09/02 05:47:18;;;;;;;14.02;6.53;;;;;;;13.71;80.94;101366.09;5203031;28;20482;-69
2022/09/02 05:49:50;;;;;;;12.93;6.55;;;;;;;13.78;81.45;101362.91;5203431;28;20598;-69
2022/09/02 05:52:22;;;;;;;11.65;6.53;;;;;;;13.88;82.41;101366.50;5205654;28;20125;-69
2022/09/02 05:54:54;;;;;;;11.48;6.15;;;;;;;13.90;81.17;101370.78;5205916;28;20025;-69
2022/09/02 05:57:25;;;;;;;14.73;6.60;;;;;;;13.98;83.39;101366.59;5202733;28;20042;-69
2022/09/02 05:59:57;;;;;;;14.82;7.63;;;;;;;14.04;82.76;101363.44;5203251;28;20506;-69
2022/09/02 06:02:28;;;;;;;11.40;7.15;;;;;;;14.10;86.79;101365.59;5200672;28;20044;-69
2022/09/02 06:04:59;;;;;;;13.88;7.03;;;;;;;14.18;83.42;101356.91;5206465;28;20064;-69
2022/09/02 06:07:31;;;;;;;13.65;7.20;;;;;;;14.23;85.30;101362.72;5200397;28;20040;-69
2022/09/02 06:10:02;;;;;;;14.68;8.32;;;;;;;14.28;88.17;101368.56;5190638;28;20146;-69
2022/09/02 06:12:33;;;;;;;14.82;7.50;;;;;;;14.32;85.79;101361.97;5193313;28;20033;-69
2022/09/02 06:15:05;;;;;;;15.30;8.18;;;;;;;14.43;88.44;101361.91;5197526;28;20034;-69
2022/09/02 06:17:36;;;;;;;18.63;8.93;;;;;;;14.52;88.63;101362.97;5202477;28;20033;-69
2022/09/02 06:20:08;;;;;;;16.08;9.57;;;;;;;14.54;85.71;101366.38;5196815;28;20033;-69
2022/09/02 06:22:39;;;;;;;18.20;9.60;;;;;;;14.59;87.13;101366.00;5199184;28;20130;-69
2022/09/02 06:25:10;;;;;;;16.83;8.75;;;;;;;14.67;87.04;101358.19;5199482;28;20029;-69
2022/09/02 06:27:42;;;;;;;22.38;9.52;;;;;;;14.70;85.89;101358.72;5199090;28;20064;-69
2022/09/02 06:30:13;;;;;;;17.35;9.60;;;;;;;14.79;88.74;101361.63;5198101;28;20121;-69
2022/09/02 06:32:45;;;;;;;19.48;10.90;;;;;;;14.82;85.75;101359.53;5198070;28;20037;-70
2022/09/02 06:35:17;;;;;;;22.52;11.50;;;;;;;14.88;80.97;101356.31;5200639;28;20038;-69
2022/09/02 06:37:48;;;;;;;26.27;11.60;;;;;;;14.96;85.44;101363.72;5199497;28;20025;-69
2022/09/02 06:40:19;;;;;;;24.00;12.07;;;;;;;15.05;81.19;101362.91;5200720;28;20476;-69
2022/09/02 06:42:52;;;;;;;26.55;12.30;;;;;;;15.10;87.71;101365.19;5198407;28;20393;-69
2022/09/02 06:45:23;;;;;;;28.30;12.70;;;;;;;15.20;82.74;101358.00;5197903;28;20044;-69
2022/09/02 06:47:54;;;;;;;24.00;12.32;;;;;;;15.33;85.07;101355.09;5199959;28;20034;-68
2022/09/02 06:50:26;;;;;;;28.02;13.23;;;;;;;15.38;85.44;101355.56;5208773;28;20416;-67
2022/09/02 06:52:57;;;;;;;26.33;13.75;;;;;;;15.49;84.97;101352.75;5213596;28;20725;-67
2022/09/02 06:55:28;;;;;;;25.90;13.60;;;;;;;15.57;82.55;101351.19;5209588;28;20034;-67
2022/09/02 06:57:59;;;;;;;42.35;14.65;;;;;;;15.61;83.50;101355.31;5200288;28;20432;-67
2022/09/02 07:00:31;;;;;;;28.58;14.10;;;;;;;15.69;80.65;101353.66;5200373;28;20038;-67
2022/09/02 07:06:08;;;;;;;29.05;15.40;;;;;;;15.86;84.97;101348.63;5200388;28;20495;-67
2022/09/02 07:08:41;;;;;;;28.60;14.85;;;;;;;15.96;80.70;101349.47;5201140;28;20029;-68
2022/09/02 07:11:23;;;;;;;38.22;15.98;;;;;;;16.08;80.87;101351.03;5201253;28;20383;-68
2022/09/02 07:13:54;;;;;;;28.90;14.90;;;;;;;16.27;78.25;101344.78;5200840;28;20076;-68
2022/09/02 07:16:27;;;;;;;31.35;15.43;;;;;;;16.32;74.92;101346.19;5201323;28;20108;-67
2022/09/02 07:19:00;;;;;;;30.02;15.45;;;;;;;16.46;79.03;101343.09;5203085;28;20117;-68
2022/09/02 07:21:31;;;;;;;29.27;14.60;;;;;;;16.58;76.60;101347.31;5203523;28;20037;-68
2022/09/02 07:24:03;;;;;;;30.85;15.35;;;;;;;16.69;76.44;101345.47;5204646;28;20037;-68
2022/09/02 07:26:34;;;;;;;28.55;14.93;;;;;;;16.79;74.92;101347.13;5203854;28;20172;-67
2022/09/02 07:29:07;;;;;;;29.65;15.40;;;;;;;16.83;76.91;101347.72;5203026;28;20038;-68
2022/09/02 07:31:42;;;;;;;26.77;14.60;;;;;;;16.96;76.37;101345.56;5211906;28;20021;-68
2022/09/02 07:34:14;;;;;;;28.98;15.32;;;;;;;17.03;74.90;101340.44;5209515;28;20060;-68
2022/09/02 07:36:47;;;;;;;31.10;15.32;;;;;;;17.12;72.64;101341.38;5205947;28;20024;-68
2022/09/02 07:39:19;;;;;;;27.48;15.63;;;;;;;17.19;74.86;101335.25;5206875;28;20090;-68
2022/09/02 07:41:51;;;;;;;26.45;15.00;;;;;;;17.27;70.96;101337.19;5210426;28;20038;-67
2022/09/02 07:44:23;;;;;;;28.85;15.23;;;;;;;17.34;72.00;101343.72;5206794;28;20032;-68
2022/09/02 07:46:55;;;;;;;24.95;15.15;;;;;;;17.44;75.51;101332.88;5202066;28;20034;-68
2022/09/02 07:49:26;;;;;;;26.85;15.27;;;;;;;17.55;74.33;101339.91;5201307;28;20463;-68
2022/09/02 07:51:57;;;;;;;28.88;15.00;;;;;;;17.63;74.32;101342.69;5207593;28;20037;-68
2022/09/02 07:54:30;;;;;;;23.73;14.02;;;;;;;17.76;71.50;101337.78;5204313;28;20333;-67
2022/09/02 07:57:02;;;;;;;25.35;14.00;;;;;;;17.80;73.35;101338.34;5204498;28;20042;-68
2022/09/02 07:59:33;;;;;;;24.55;13.65;;;;;;;17.93;74.10;101340.66;5217595;28;20329;-68
2022/09/02 08:02:04;;;;;;;29.58;14.85;;;;;;;17.99;68.29;101340.06;5207867;28;20038;-67
2022/09/02 08:04:36;;;;;;;26.83;14.68;;;;;;;18.05;70.07;101339.47;5216028;28;20037;-68
2022/09/02 08:07:07;;;;;;;30.10;15.38;;;;;;;18.15;68.58;101337.50;5210830;28;20034;-68
2022/09/02 08:09:39;;;;;;;28.83;15.57;;;;;;;18.26;71.35;101338.28;5204955;28;21559;-67
2022/09/02 08:12:10;;;;;;;27.77;14.23;;;;;;;18.34;70.92;101338.34;5203908;28;20038;-68
2022/09/02 08:14:42;;;;;;;28.33;14.25;;;;;;;18.48;66.61;101331.53;5206431;28;20040;-67
2022/09/02 08:17:13;;;;;;;29.70;15.02;;;;;;;18.52;68.88;101328.34;5203557;28;20112;-68
2022/09/02 08:19:44;;;;;;;30.23;14.50;;;;;;;18.63;69.74;101329.97;5204560;28;20480;-67
2022/09/02 08:22:16;;;;;;;26.25;14.02;;;;;;;18.79;67.29;101326.50;5205367;28;20706;-68
2022/09/02 08:24:47;;;;;;;26.85;13.80;;;;;;;18.84;67.21;101329.63;5204791;28;20064;-67
2022/09/02 08:27:18;;;;;;;27.98;13.77;;;;;;;18.99;72.36;101328.03;5206235;28;20087;-68
2022/09/02 08:29:49;;;;;;;29.80;14.80;;;;;;;19.05;70.32;101318.41;5197447;28;20440;-67
2022/09/02 08:32:21;;;;;;;25.95;14.32;;;;;;;19.14;65.81;101316.59;5195910;28;20164;-67
2022/09/02 08:34:52;;;;;;;29.23;14.32;;;;;;;19.26;67.63;101318.00;5198604;28;20025;-67
2022/09/02 08:37:26;;;;;;;31.58;14.23;;;;;;;19.35;68.25;101325.16;5195083;28;20025;-67
2022/09/02 08:39:58;;;;;;;25.17;13.43;;;;;;;19.48;68.52;101318.41;5190944;28;20030;-68
2022/09/02 08:42:37;;;;;;;26.75;13.68;;;;;;;19.56;66.88;101318.47;5200949;28;20061;-68
2022/09/02 08:45:34;;;;;;;25.50;12.63;;;;;;;19.73;66.37;101317.50;5193788;28;20037;-67
2022/09/02 08:48:20;;;;;;;23.92;12.73;;;;;;;19.81;65.82;101319.41;5198628;28;20025;-68
2022/09/02 08:50:57;;;;;;;22.25;12.48;;;;;;;19.91;65.29;101317.38;5208471;28;20065;-67
2022/09/02 08:53:50;;;;;;;26.15;12.75;;;;;;;20.02;66.52;101315.34;5198396;28;20037;-67
2022/09/02 08:56:21;;;;;;;24.88;13.63;;;;;;;20.07;63.72;101311.09;5203950;28;20466;-67
2022/09/02 08:58:55;;;;;;;25.13;12.82;;;;;;;20.15;67.13;101321.97;5203448;28;20040;-67
2022/09/02 09:01:48;;;;;;;22.95;11.68;;;;;;;20.30;67.30;101324.00;5209713;28;20040;-67
2022/09/02 09:04:42;;;;;;;25.65;12.45;;;;;;;20.42;65.17;101319.91;5213842;28;20034;-67
2022/09/02 09:07:13;;;;;;;24.15;12.38;;;;;;;20.40;67.56;101321.09;5212085;28;20052;-67
2022/09/02 09:10:13;;;;;;;20.63;10.98;;;;;;;20.48;63.90;101324.66;5205510;28;20026;-68
2022/09/02 09:13:03;;;;;;;23.33;11.35;;;;;;;20.45;65.59;101327.72;5208250;28;20154;-67
2022/09/02 09:15:54;;;;;;;18.23;11.15;;;;;;;20.54;66.40;101321.28;5214324;28;20152;-67
2022/09/02 09:18:38;;;;;;;22.42;11.23;;;;;;;20.65;63.40;101324.66;5208719;28;20037;-67
2022/09/02 09:21:10;;;;;;;20.85;10.38;;;;;;;20.71;63.57;101326.69;5210821;28;20072;-67
2022/09/02 09:23:41;;;;;;;17.70;9.57;;;;;;;20.70;65.40;101323.13;5200151;28;20060;-67
2022/09/02 09:26:17;;;;;;;17.95;8.32;;;;;;;20.82;64.48;101320.91;5212302;28;20018;-67
2022/09/02 09:28:49;;;;;;;16.02;8.60;;;;;;;20.94;65.75;101321.38;5207484;28;20361;-68
2022/09/02 09:31:28;;;;;;;15.57;7.65;;;;;;;21.01;60.57;101316.13;5204322;28;20032;-67
2022/09/02 09:34:11;;;;;;;16.75;7.25;;;;;;;21.16;63.54;101322.50;5206153;28;20044;-67
2022/09/02 09:36:46;;;;;;;11.93;6.13;;;;;;;21.25;64.30;101318.75;5214900;28;20040;-68
2022/09/02 09:39:30;;;;;;;13.63;5.80;;;;;;;21.44;62.53;101312.06;5205575;28;20231;-67
2022/09/02 09:42:10;;;;;;;10.52;5.07;;;;;;;21.54;56.80;101312.69;5207852;28;20044;-67
2022/09/02 09:44:46;;;;;;;9.05;4.30;;;;;;;21.56;60.93;101304.38;5206284;28;20030;-67
2022/09/02 09:47:21;;;;;;;10.77;4.40;;;;;;;21.66;62.62;101301.41;5208172;28;20036;-67
2022/09/02 09:50:17;;;;;;;9.07;4.40;;;;;;;22.01;62.91;101297.25;5197853;28;20495;-67
2022/09/02 09:52:48;;;;;;;9.18;3.33;;;;;;;22.12;57.61;101296.84;5196895;28;20495;-67
2022/09/02 09:55:21;;;;;;;6.72;3.15;;;;;;;22.28;57.71;101293.19;5204114;28;20057;-67
2022/09/02 09:58:06;;;;;;;15.38;4.28;;;;;;;22.51;60.53;101293.13;5205158;28;20040;-67
2022/09/02 10:00:38;;;;;;;7.80;3.03;;;;;;;22.68;59.24;101292.94;5204683;28;20037;-67
2022/09/02 10:03:21;;;;;;;12.43;4.65;;;;;;;22.87;59.59;101297.00;5205624;28;20037;-67
2022/09/02 10:05:58;;;;;;;5.75;2.40;;;;;;;22.90;58.52;101283.84;5206433;28;20058;-67
2022/09/02 10:08:30;;;;;;;6.30;2.13;;;;;;;23.01;56.45;101288.00;5202672;28;20075;-67
2022/09/02 10:11:18;;;;;;;6.13;1.73;;;;;;;23.09;54.80;101281.63;5204143;28;20557;-67
2022/09/02 10:13:49;;;;;;;6.05;1.95;;;;;;;23.19;52.43;101284.91;5207104;28;20585;-67
2022/09/02 10:16:33;;;;;;;6.18;2.03;;;;;;;23.35;51.89;101280.28;5205230;28;20026;-67
2022/09/02 10:19:05;;;;;;;;;;;;;;;23.52;56.20;101281.72;5205614;28;20033;-67
2022/09/02 10:21:58;;;;;;;7.80;1.90;;;;;;;23.48;52.36;101274.97;5208863;28;19932;-67
2022/09/02 10:24:59;;;;;;;5.15;1.70;;;;;;;23.31;53.70;101274.34;5204761;28;20057;-66
2022/09/02 10:27:46;;;;;;;5.82;1.80;;;;;;;23.26;51.20;101269.50;5211372;28;20466;-67
2022/09/02 10:30:22;;;;;;;7.47;1.73;;;;;;;23.32;49.76;101267.91;5201396;28;20086;-66
2022/09/02 10:33:29;;;;;;;4.95;1.80;;;;;;;23.38;50.86;101263.56;5208463;28;20449;-67
2022/09/02 10:36:27;;;;;;;4.28;1.58;;;;;;;23.45;50.97;101261.72;5203869;28;20041;-67
2022/09/02 10:39:14;;;;;;;5.35;2.13;;;;;;;23.44;51.25;101270.97;5206857;28;20029;-67
2022/09/02 10:41:46;;;;;;;4.25;1.42;;;;;;;23.40;49.59;101261.50;5205278;28;20462;-67
2022/09/02 10:44:40;;;;;;;5.90;1.90;;;;;;;23.46;49.87;101256.09;5201634;28;20034;-68
2022/09/02 10:47:19;;;;;;;6.38;2.03;;;;;;;23.51;49.06;101255.53;5207595;28;20041;-68
2022/09/02 10:50:09;;;;;;;6.68;2.00;;;;;;;23.43;48.29;101252.91;5211564;28;20046;-68
2022/09/02 10:52:55;;;;;;;6.22;1.80;;;;;;;23.46;49.61;101241.66;5211550;28;20384;-68
2022/09/02 10:55:43;;;;;;;3.95;1.60;;;;;;;23.39;49.32;101249.72;5208462;28;20499;-67
2022/09/02 10:58:33;;;;;;;3.83;1.70;;;;;;;23.48;49.30;101243.13;5210152;28;20033;-68
2022/09/02 11:01:09;;;;;;;5.57;1.95;;;;;;;23.55;47.44;101229.59;5205969;28;20041;-67
2022/09/02 11:03:59;;;;;;;3.28;1.35;;;;;;;23.55;47.97;101228.72;5212333;28;20029;-67
2022/09/02 11:06:38;;;;;;;8.15;1.95;;;;;;;23.56;47.76;101233.16;5211266;28;20503;-67
2022/09/02 11:09:24;;;;;;;4.07;1.70;;;;;;;23.51;48.45;101236.47;5217404;28;20516;-67
2022/09/02 11:12:06;;;;;;;4.78;1.52;;;;;;;23.71;45.04;101228.50;5211607;28;20065;-67
2022/09/02 11:15:05;;;;;;;4.43;1.60;;;;;;;23.75;46.71;101220.78;5206353;28;20029;-67
2022/09/02 11:17:56;;;;;;;5.53;1.60;;;;;;;23.79;44.78;101222.09;5212736;28;20052;-67
2022/09/02 11:20:37;;;;;;;6.47;1.90;;;;;;;23.75;45.63;101210.72;5218529;28;20062;-67
2022/09/02 11:23:26;;;;;;;4.45;1.77;;;;;;;23.92;45.51;101203.13;5207662;28;20037;-67
2022/09/02 11:26:06;;;;;;;7.20;1.73;;;;;;;24.05;43.16;101208.69;5210562;28;20428;-67
2022/09/02 11:28:49;;;;;;;3.65;1.42;;;;;;;23.95;43.51;101202.75;5206670;28;20022;-67
2022/09/02 11:31:29;;;;;;;4.85;1.60;;;;;;;24.13;42.97;101201.44;5208456;28;20649;-67
2022/09/02 11:34:18;;;;;;;4.32;1.67;;;;;;;24.13;44.04;101204.16;5204071;28;20111;-67
2022/09/02 11:36:50;;;;;;;5.55;1.60;;;;;;;24.17;43.83;101202.72;5214786;28;20146;-67
2022/09/02 11:39:30;;;;;;;4.32;1.55;;;;;;;24.31;42.12;101201.75;5201827;28;20034;-67
2022/09/02 11:42:18;;;;;;;4.13;1.52;;;;;;;24.22;43.37;101194.75;5202754;28;20640;-67
2022/09/02 11:45:29;;;;;;;4.10;1.60;;;;;;;24.51;42.68;101195.56;5212256;28;20044;-67
2022/09/02 11:48:28;;;;;;;4.18;1.60;;;;;;;24.67;41.15;101194.44;5203004;28;20030;-66
2022/09/02 11:51:45;;;;;;;3.58;1.23;;;;;;;24.82;41.95;101187.78;5216491;28;20082;-67
2022/09/02 11:54:20;;;;;;;2.80;1.30;;;;;;;24.64;41.91;101187.50;5204307;28;20399;-67
2022/09/02 11:56:57;;;;;;;3.58;1.30;;;;;;;24.82;40.47;101179.59;5210462;28;20080;-67
2022/09/02 11:59:47;;;;;;;5.85;1.40;;;;;;;24.82;40.14;101173.31;5207780;28;20022;-67